Terminal Aerodrome Forecast
Issued by NWS

Home | Current Version | Previous Version | Text Only | Print | Product List | Glossary On
Versions: 1 2 3 4 5 6 7 8 9 10 11 12 13 14 15 16 17
000
FTUS45 KABQ 202300
TAFFMN
TAF
KFMN 202330Z 2100/2124 30016G25KT P6SM FEW100 SCT150
     FM210130 VRB05KT P6SM FEW150
     FM210700 07005KT P6SM SKC
     FM212000 23007KT P6SM FEW120=

USA.gov is the U.S. government's official web portal to all federal, state and local government web resources and services.